createdAt,value
2023-03-14T00:00:06.895Z,98726.06
2023-03-14T00:02:36.140Z,98732.78
2023-03-14T00:05:07.621Z,98729.94
2023-03-14T00:07:36.199Z,98734.56
2023-03-14T00:10:05.404Z,98742.81
2023-03-14T00:12:32.898Z,98741.28
2023-03-14T00:15:01.066Z,98725.97
2023-03-14T00:17:28.135Z,98729.06
2023-03-14T00:19:54.997Z,98719.78
2023-03-14T00:22:22.579Z,98739.91
2023-03-14T00:24:49.084Z,98732.78
2023-03-14T00:27:15.589Z,98721.38
2023-03-14T00:29:46.179Z,98720.53
2023-03-14T00:32:17.422Z,98713.69
2023-03-14T00:34:44.008Z,98704.81
2023-03-14T00:37:10.458Z,98707.50
2023-03-14T00:39:36.876Z,98710.91
2023-03-14T00:42:03.397Z,98710.44
2023-03-14T00:44:29.877Z,98708.88
2023-03-14T00:46:56.420Z,98700.91
2023-03-14T00:49:22.953Z,98702.59
2023-03-14T00:51:49.383Z,98702.22
2023-03-14T00:54:15.921Z,98690.94
2023-03-14T00:56:45.002Z,98702.94
2023-03-14T00:59:11.451Z,98706.03
2023-03-14T01:01:42.902Z,98712.44
2023-03-14T01:04:09.447Z,98714.56
2023-03-14T01:06:41.053Z,98702.59
2023-03-14T01:09:07.575Z,98705.94
2023-03-14T01:11:35.853Z,98716.94
2023-03-14T01:14:03.759Z,98695.75
2023-03-14T01:16:34.391Z,98692.88
2023-03-14T01:19:04.495Z,98700.25
2023-03-14T01:21:36.274Z,98695.16
2023-03-14T01:24:04.894Z,98689.16
2023-03-14T01:26:33.763Z,98682.28
2023-03-14T01:29:00.693Z,98677.28
2023-03-14T01:31:29.789Z,98673.16
2023-03-14T01:33:58.439Z,98673.72
2023-03-14T01:36:25.237Z,98654.28
2023-03-14T01:38:51.727Z,98668.88
2023-03-14T01:41:24.388Z,98654.97
2023-03-14T01:43:55.810Z,98640.84
2023-03-14T01:46:46.350Z,98648.78
2023-03-14T01:49:30.843Z,98640.97
2023-03-14T01:51:59.173Z,98640.97
2023-03-14T01:54:35.379Z,98629.59
2023-03-14T01:57:12.111Z,98627.22
2023-03-14T01:59:41.664Z,98620.19
2023-03-14T02:02:11.105Z,98615.59
2023-03-14T02:04:39.482Z,98613.00
2023-03-14T02:07:26.210Z,98601.03
2023-03-14T02:09:57.301Z,98609.19
2023-03-14T02:12:24.293Z,98613.94
2023-03-14T02:14:50.763Z,98605.97
2023-03-14T02:17:18.901Z,98596.50
2023-03-14T02:20:11.314Z,98597.31
2023-03-14T02:22:40.577Z,98600.75
2023-03-14T02:25:07.661Z,98592.69
2023-03-14T02:27:34.761Z,98594.94
2023-03-14T02:30:05.524Z,98573.47
2023-03-14T02:32:34.619Z,98574.44
2023-03-14T02:35:07.360Z,98590.69
2023-03-14T02:37:39.636Z,98586.88
2023-03-14T02:40:08.857Z,98573.03
2023-03-14T02:42:35.380Z,98570.28
2023-03-14T02:45:10.910Z,98576.09
2023-03-14T02:47:43.392Z,98559.13
2023-03-14T02:50:15.903Z,98574.91
2023-03-14T02:52:42.584Z,98574.44
2023-03-14T02:55:09.850Z,98576.81
2023-03-14T02:57:36.369Z,98576.44
2023-03-14T03:00:07.583Z,98565.75
2023-03-14T03:02:34.037Z,98561.63
2023-03-14T03:05:00.549Z,98566.72
2023-03-14T03:07:27.068Z,98563.84
2023-03-14T03:09:53.476Z,98579.38
2023-03-14T03:12:19.960Z,98558.03
2023-03-14T03:14:46.389Z,98559.72
2023-03-14T03:17:12.774Z,98546.69
2023-03-14T03:19:39.241Z,98549.75
2023-03-14T03:22:08.263Z,98538.22
2023-03-14T03:24:37.476Z,98535.84
2023-03-14T03:27:04.006Z,98525.31
2023-03-14T03:29:30.384Z,98514.16
2023-03-14T03:31:57.034Z,98519.63
2023-03-14T03:34:25.833Z,98521.38
2023-03-14T03:36:52.271Z,98514.75
2023-03-14T03:39:18.769Z,98495.56
2023-03-14T03:41:45.297Z,98494.03
2023-03-14T03:44:11.874Z,98493.91
2023-03-14T03:46:38.379Z,98500.06
2023-03-14T03:49:10.170Z,98488.44
2023-03-14T03:51:41.066Z,98490.00
2023-03-14T03:54:07.500Z,98478.75
2023-03-14T03:56:37.204Z,98482.31
2023-03-14T03:59:03.665Z,98469.50
2023-03-14T04:01:30.114Z,98483.72
2023-03-14T04:03:56.926Z,98482.03
2023-03-14T04:06:23.561Z,98487.06
2023-03-14T04:08:49.948Z,98485.88
2023-03-14T04:11:18.225Z,98497.00
2023-03-14T04:13:44.750Z,98486.72
2023-03-14T04:16:16.601Z,98483.59
2023-03-14T04:18:43.174Z,98484.34
2023-03-14T04:21:09.599Z,98486.94
2023-03-14T04:23:36.232Z,98493.69
2023-03-14T04:26:02.715Z,98500.09
2023-03-14T04:28:29.725Z,98489.31
2023-03-14T04:30:56.336Z,98494.41
2023-03-14T04:33:23.084Z,98477.22
2023-03-14T04:35:51.188Z,98463.72
2023-03-14T04:38:17.815Z,98464.06
2023-03-14T04:40:45.089Z,98459.19
2023-03-14T04:43:14.705Z,98462.38
2023-03-14T04:45:44.328Z,98457.06
2023-03-14T04:48:10.917Z,98452.19
2023-03-14T04:50:37.329Z,98455.06
2023-03-14T04:53:03.782Z,98447.72
2023-03-14T04:55:30.269Z,98455.19
2023-03-14T04:57:56.753Z,98446.16
2023-03-14T05:00:23.260Z,98458.25
2023-03-14T05:02:52.697Z,98447.94
2023-03-14T05:05:19.985Z,98454.00
2023-03-14T05:07:46.484Z,98449.81
2023-03-14T05:10:12.910Z,98440.38
2023-03-14T05:12:39.416Z,98454.00
2023-03-14T05:15:06.523Z,98460.50
2023-03-14T05:17:35.861Z,98458.84
2023-03-14T05:20:13.724Z,98453.88
2023-03-14T05:22:40.872Z,98455.75
2023-03-14T05:25:08.291Z,98457.88
2023-03-14T05:27:35.468Z,98448.91
2023-03-14T05:30:03.564Z,98452.44
2023-03-14T05:32:33.150Z,98453.25
2023-03-14T05:35:00.494Z,98446.53
2023-03-14T05:37:27.850Z,98434.78
2023-03-14T05:39:54.338Z,98430.16
2023-03-14T05:42:23.558Z,98437.72
2023-03-14T05:44:49.982Z,98435.38
2023-03-14T05:47:16.482Z,98434.44
2023-03-14T05:49:42.882Z,98438.44
2023-03-14T05:52:09.473Z,98438.09
2023-03-14T05:54:40.827Z,98438.78
2023-03-14T05:57:07.551Z,98440.81
2023-03-14T05:59:36.712Z,98432.13
2023-03-14T06:02:03.214Z,98426.47
2023-03-14T06:04:29.736Z,98425.06
2023-03-14T06:06:56.257Z,98423.38
2023-03-14T06:09:24.285Z,98437.38
2023-03-14T06:11:50.889Z,98435.56
2023-03-14T06:14:18.025Z,98438.78
2023-03-14T06:16:44.759Z,98433.09
2023-03-14T06:19:13.663Z,98437.84
2023-03-14T06:21:40.208Z,98429.19
2023-03-14T06:24:09.403Z,98424.19
2023-03-14T06:26:38.527Z,98427.38
2023-03-14T06:29:05.939Z,98436.41
2023-03-14T06:31:34.697Z,98421.22
2023-03-14T06:34:01.296Z,98425.84
2023-03-14T06:36:27.736Z,98426.06
2023-03-14T06:38:54.221Z,98434.50
2023-03-14T06:41:20.679Z,98428.06
2023-03-14T06:43:47.138Z,98426.84
2023-03-14T06:46:13.605Z,98428.72
2023-03-14T06:48:40.034Z,98421.63
2023-03-14T06:51:07.391Z,98421.97
2023-03-14T06:53:36.438Z,98418.94
2023-03-14T06:56:02.860Z,98419.28
2023-03-14T06:58:29.390Z,98415.97
2023-03-14T07:00:56.131Z,98419.78
2023-03-14T07:03:25.019Z,98410.41
2023-03-14T07:05:54.412Z,98415.03
2023-03-14T07:08:20.870Z,98425.72
2023-03-14T07:10:47.324Z,98408.16
2023-03-14T07:13:14.067Z,98422.88
2023-03-14T07:15:40.531Z,98432.06
2023-03-14T07:18:09.517Z,98433.94
2023-03-14T07:20:36.007Z,98438.41
2023-03-14T07:23:04.046Z,98429.16
2023-03-14T07:25:30.657Z,98436.41
2023-03-14T07:27:57.227Z,98432.59
2023-03-14T07:30:23.759Z,98439.47
2023-03-14T07:32:50.332Z,98442.78
2023-03-14T07:35:17.058Z,98443.00
2023-03-14T07:37:43.436Z,98439.09
2023-03-14T07:40:15.833Z,98432.06
2023-03-14T07:42:43.574Z,98438.22
2023-03-14T07:45:12.327Z,98454.22
2023-03-14T07:47:39.507Z,98453.75
2023-03-14T07:50:06.808Z,98456.09
2023-03-14T07:52:33.532Z,98442.31
2023-03-14T07:55:00.403Z,98454.09
2023-03-14T07:57:29.191Z,98453.09
2023-03-14T07:59:55.623Z,98447.56
2023-03-14T08:02:25.170Z,98458.66
2023-03-14T08:04:51.712Z,98452.88
2023-03-14T08:07:20.460Z,98452.03
2023-03-14T08:09:46.922Z,98449.22
2023-03-14T08:12:13.944Z,98450.31
2023-03-14T08:14:40.377Z,98441.53
2023-03-14T08:17:09.048Z,98434.03
2023-03-14T08:19:35.653Z,98442.03
2023-03-14T08:22:02.103Z,98442.69
2023-03-14T08:24:28.617Z,98444.09
2023-03-14T08:26:55.003Z,98437.94
2023-03-14T08:29:24.037Z,98441.75
2023-03-14T08:31:50.605Z,98447.84
2023-03-14T08:34:17.197Z,98444.13
2023-03-14T08:36:45.989Z,98446.13
2023-03-14T08:39:12.566Z,98450.69
2023-03-14T08:41:43.737Z,98459.75
2023-03-14T08:44:11.022Z,98463.34
2023-03-14T08:46:37.548Z,98451.31
2023-03-14T08:49:04.599Z,98468.13
2023-03-14T08:51:33.316Z,98461.91
2023-03-14T08:53:59.726Z,98456.78
2023-03-14T08:56:26.306Z,98478.13
2023-03-14T08:58:52.782Z,98467.94
2023-03-14T09:01:20.199Z,98481.00
2023-03-14T09:03:52.049Z,98481.19
2023-03-14T09:06:20.855Z,98480.06
2023-03-14T09:08:47.344Z,98487.25
2023-03-14T09:11:14.638Z,98487.81
2023-03-14T09:13:43.576Z,98488.16
2023-03-14T09:16:13.552Z,98496.34
2023-03-14T09:18:39.985Z,98494.72
2023-03-14T09:21:06.699Z,98504.22
2023-03-14T09:23:33.858Z,98490.41
2023-03-14T09:26:01.850Z,98493.97
2023-03-14T09:28:28.724Z,98505.50
2023-03-14T09:30:55.544Z,98498.47
2023-03-14T09:33:22.218Z,98502.13
2023-03-14T09:35:48.728Z,98498.97
2023-03-14T09:38:17.572Z,98500.13
2023-03-14T09:40:44.245Z,98491.91
2023-03-14T09:43:14.980Z,98491.34
2023-03-14T09:45:47.397Z,98497.13
2023-03-14T09:48:21.370Z,98497.69
2023-03-14T09:50:53.424Z,98491.59
2023-03-14T09:53:21.591Z,98495.97
2023-03-14T09:55:50.438Z,98478.75
2023-03-14T09:58:24.901Z,98486.78
2023-03-14T10:00:55.211Z,98484.03
2023-03-14T10:03:29.957Z,98491.00
2023-03-14T10:05:57.294Z,98480.28
2023-03-14T10:08:24.027Z,98480.91
2023-03-14T10:10:50.652Z,98480.50
2023-03-14T10:13:28.782Z,98476.22
2023-03-14T10:16:04.136Z,98470.34
2023-03-14T10:18:34.806Z,98471.34
2023-03-14T10:21:21.692Z,98486.16
2023-03-14T10:23:50.512Z,98493.19
2023-03-14T10:26:19.521Z,98482.81
2023-03-14T10:28:54.071Z,98489.59
2023-03-14T10:31:26.199Z,98494.31
2023-03-14T10:34:15.364Z,98483.72
2023-03-14T10:36:44.242Z,98472.28
2023-03-14T10:39:31.884Z,98484.38
2023-03-14T10:42:13.468Z,98488.44
2023-03-14T10:44:43.610Z,98487.63
2023-03-14T10:47:19.388Z,98487.53
2023-03-14T10:49:46.594Z,98492.41
2023-03-14T10:52:19.591Z,98493.00
2023-03-14T10:55:03.288Z,98486.88
2023-03-14T10:57:29.809Z,98492.31
2023-03-14T10:59:57.994Z,98491.63
2023-03-14T11:02:46.044Z,98500.94
2023-03-14T11:05:34.177Z,98500.06
2023-03-14T11:08:12.272Z,98490.59
2023-03-14T11:10:43.892Z,98497.63
2023-03-14T11:13:23.861Z,98512.84
2023-03-14T11:16:32.309Z,98505.53
2023-03-14T11:19:26.477Z,98509.81
2023-03-14T11:21:56.815Z,98508.06
2023-03-14T11:24:46.877Z,98515.16
2023-03-14T11:27:24.056Z,98501.16
2023-03-14T11:30:15.092Z,98508.78
2023-03-14T11:33:04.687Z,98523.81
2023-03-14T11:35:39.612Z,98529.13
2023-03-14T11:38:16.887Z,98532.81
2023-03-14T11:40:45.373Z,98531.63
2023-03-14T11:43:33.712Z,98540.03
2023-03-14T11:46:07.068Z,98556.72
2023-03-14T11:48:43.190Z,98573.69
2023-03-14T11:51:20.865Z,98573.00
2023-03-14T11:53:56.367Z,98573.69
2023-03-14T11:56:30.924Z,98594.19
2023-03-14T11:59:13.262Z,98609.63
2023-03-14T12:02:06.625Z,98633.16
2023-03-14T12:04:44.319Z,98636.56
2023-03-14T12:07:22.614Z,98642.91
2023-03-14T12:09:51.327Z,98643.84
2023-03-14T12:12:23.324Z,98666.50
2023-03-14T12:14:56.113Z,98675.16
2023-03-14T12:17:26.377Z,98696.41
2023-03-14T12:20:07.093Z,98698.19
2023-03-14T12:22:44.039Z,98728.69
2023-03-14T12:25:13.831Z,98735.94
2023-03-14T12:27:42.641Z,98737.38
2023-03-14T12:30:22.047Z,98761.31
2023-03-14T12:33:11.484Z,98761.75
2023-03-14T12:35:39.367Z,98770.53
2023-03-14T12:38:12.725Z,98777.84
2023-03-14T12:40:48.881Z,98794.06
2023-03-14T12:43:30.692Z,98801.44
2023-03-14T12:46:19.143Z,98814.34
2023-03-14T12:48:51.284Z,98819.81
2023-03-14T12:51:21.057Z,98830.63
2023-03-14T12:53:47.486Z,98853.06
2023-03-14T12:56:26.249Z,98871.38
2023-03-14T12:59:10.087Z,98870.63
2023-03-14T13:01:36.788Z,98890.84
2023-03-14T13:04:10.754Z,98893.72
2023-03-14T13:06:57.360Z,98907.84
2023-03-14T13:09:26.832Z,98919.50
2023-03-14T13:12:01.369Z,98927.50
2023-03-14T13:14:31.607Z,98939.38
2023-03-14T13:17:19.344Z,98959.25
2023-03-14T13:19:54.493Z,98961.72
2023-03-14T13:22:29.979Z,98997.13
2023-03-14T13:25:10.630Z,99004.72
2023-03-14T13:27:37.777Z,99010.09
2023-03-14T13:30:29.220Z,99045.50
2023-03-14T13:32:56.973Z,99038.53
2023-03-14T13:35:28.922Z,99037.38
2023-03-14T13:38:10.660Z,99046.03
2023-03-14T13:40:41.507Z,99031.72
2023-03-14T13:43:26.132Z,99054.31
2023-03-14T13:46:14.986Z,99073.78
2023-03-14T13:48:46.870Z,99083.84
2023-03-14T13:51:16.840Z,99115.13
2023-03-14T13:53:54.408Z,99108.63
2023-03-14T13:56:22.857Z,99172.75
2023-03-14T13:58:54.471Z,99171.63
2023-03-14T14:01:24.039Z,99185.97
2023-03-14T14:03:53.176Z,99217.28
2023-03-14T14:06:33.712Z,99261.81
2023-03-14T14:09:12.942Z,99295.91
2023-03-14T14:12:17.877Z,99290.22
2023-03-14T14:14:49.988Z,99294.72
2023-03-14T14:17:19.225Z,99314.41
2023-03-14T14:19:49.106Z,99321.09
2023-03-14T14:22:18.925Z,99344.63
2023-03-14T14:24:45.539Z,99335.53
2023-03-14T14:27:18.148Z,99342.94
2023-03-14T14:29:46.626Z,99343.38
2023-03-14T14:32:15.507Z,99340.38
2023-03-14T14:35:01.944Z,99349.22
2023-03-14T14:37:41.935Z,99384.38
2023-03-14T14:40:21.494Z,99397.13
2023-03-14T14:42:48.849Z,99397.88
2023-03-14T14:45:20.070Z,99388.22
2023-03-14T14:48:03.266Z,99419.97
2023-03-14T14:50:40.562Z,99442.75
2023-03-14T14:53:27.378Z,99477.44
2023-03-14T14:55:56.621Z,99472.44
2023-03-14T14:58:38.902Z,99459.25
2023-03-14T15:01:11.399Z,99451.69
2023-03-14T15:03:37.838Z,99435.13
2023-03-14T15:06:05.051Z,99436.41
2023-03-14T15:08:31.718Z,99426.97
2023-03-14T15:10:59.701Z,99449.84
2023-03-14T15:13:26.317Z,99432.59
2023-03-14T15:15:59.278Z,99419.81
2023-03-14T15:18:31.019Z,99455.63
2023-03-14T15:21:01.052Z,99466.59
2023-03-14T15:23:27.601Z,99451.69
2023-03-14T15:25:56.690Z,99476.00
2023-03-14T15:28:26.145Z,99481.28
2023-03-14T15:30:58.026Z,99477.94
2023-03-14T15:33:26.101Z,99480.88
2023-03-14T15:35:55.209Z,99462.41
2023-03-14T15:38:23.975Z,99489.72
2023-03-14T15:40:51.529Z,99501.06
2023-03-14T15:43:20.839Z,99484.06
2023-03-14T15:45:47.787Z,99486.16
2023-03-14T15:48:19.403Z,99475.72
2023-03-14T15:50:46.044Z,99488.50
2023-03-14T15:53:13.300Z,99486.16
2023-03-14T15:55:42.406Z,99476.97
2023-03-14T15:58:19.913Z,99491.88
2023-03-14T16:00:47.819Z,99496.50
2023-03-14T16:03:14.406Z,99492.28
2023-03-14T16:05:41.192Z,99478.03
2023-03-14T16:08:07.962Z,99465.66
2023-03-14T16:10:34.522Z,99465.06
2023-03-14T16:13:01.420Z,99467.16
2023-03-14T16:15:27.869Z,99461.28
2023-03-14T16:17:54.934Z,99481.38
2023-03-14T16:20:22.320Z,99467.16
2023-03-14T16:22:48.814Z,99480.16
2023-03-14T16:25:16.055Z,99466.50
2023-03-14T16:27:45.125Z,99467.78
2023-03-14T16:30:14.851Z,99471.75
2023-03-14T16:32:41.281Z,99455.41
2023-03-14T16:35:10.724Z,99454.53
2023-03-14T16:37:39.749Z,99453.28
2023-03-14T16:40:12.497Z,99437.78
2023-03-14T16:42:54.853Z,99425.41
2023-03-14T16:45:26.540Z,99426.44
2023-03-14T16:47:52.914Z,99427.28
2023-03-14T16:50:19.402Z,99411.38
2023-03-14T16:52:47.886Z,99399.22
2023-03-14T16:55:14.401Z,99430.63
2023-03-14T16:57:40.870Z,99415.13
2023-03-14T17:00:11.934Z,99418.47
2023-03-14T17:02:38.883Z,99418.47
2023-03-14T17:05:05.747Z,99412.81
2023-03-14T17:07:32.180Z,99420.56
2023-03-14T17:09:58.716Z,99421.78
2023-03-14T17:12:25.490Z,99417.13
2023-03-14T17:14:51.955Z,99410.44
2023-03-14T17:17:18.617Z,99404.78
2023-03-14T17:19:45.131Z,99409.97
2023-03-14T17:22:23.285Z,99418.72
2023-03-14T17:24:51.146Z,99417.00
2023-03-14T17:27:20.204Z,99427.03
2023-03-14T17:29:47.706Z,99428.72
2023-03-14T17:32:15.739Z,99432.69
2023-03-14T17:34:44.467Z,99426.00
2023-03-14T17:37:11.352Z,99437.47
2023-03-14T17:39:40.339Z,99435.78
2023-03-14T17:42:07.083Z,99439.53
2023-03-14T17:44:33.856Z,99451.03
2023-03-14T17:47:00.959Z,99445.38
2023-03-14T17:49:29.645Z,99455.84
2023-03-14T17:51:56.053Z,99457.28
2023-03-14T17:54:22.758Z,99460.19
2023-03-14T17:56:49.254Z,99463.94
2023-03-14T17:59:16.049Z,99481.69
2023-03-14T18:01:42.585Z,99479.81
2023-03-14T18:04:09.421Z,99474.78
2023-03-14T18:06:38.559Z,99482.47
2023-03-14T18:09:05.876Z,99488.28
2023-03-14T18:11:32.673Z,99508.53
2023-03-14T18:14:01.613Z,99491.91
2023-03-14T18:16:28.635Z,99508.16
2023-03-14T18:18:57.501Z,99528.84
2023-03-14T18:21:24.141Z,99511.78
2023-03-14T18:23:50.856Z,99530.06
2023-03-14T18:26:18.583Z,99537.50
2023-03-14T18:28:46.919Z,99545.38
2023-03-14T18:31:16.660Z,99552.44
2023-03-14T18:33:45.468Z,99560.56
2023-03-14T18:36:12.725Z,99565.53
2023-03-14T18:38:43.625Z,99578.34
2023-03-14T18:41:12.679Z,99574.53
2023-03-14T18:43:42.026Z,99593.41
2023-03-14T18:46:12.366Z,99592.09
2023-03-14T18:48:42.581Z,99603.44
2023-03-14T18:51:12.361Z,99610.03
2023-03-14T18:53:39.478Z,99621.44
2023-03-14T18:56:06.474Z,99613.78
2023-03-14T18:58:33.118Z,99623.78
2023-03-14T19:01:05.073Z,99623.59
2023-03-14T19:03:33.198Z,99612.63
2023-03-14T19:06:00.606Z,99632.69
2023-03-14T19:08:28.395Z,99633.91
2023-03-14T19:10:58.996Z,99640.16
2023-03-14T19:13:25.771Z,99632.50
2023-03-14T19:15:52.245Z,99637.47
2023-03-14T19:18:19.109Z,99646.34
2023-03-14T19:20:58.997Z,99654.56
2023-03-14T19:23:30.436Z,99657.34
2023-03-14T19:25:59.486Z,99678.09
2023-03-14T19:28:28.544Z,99681.72
2023-03-14T19:30:57.741Z,99683.22
2023-03-14T19:33:27.211Z,99688.38
2023-03-14T19:35:53.644Z,99701.31
2023-03-14T19:38:20.107Z,99698.97
2023-03-14T19:40:46.608Z,99713.34
2023-03-14T19:43:13.569Z,99715.75
2023-03-14T19:45:42.632Z,99719.16
2023-03-14T19:48:12.308Z,99724.94
2023-03-14T19:50:39.116Z,99737.84
2023-03-14T19:53:08.142Z,99763.28
2023-03-14T19:55:35.225Z,99760.91
2023-03-14T19:58:02.143Z,99768.44
2023-03-14T20:00:29.055Z,99766.59
2023-03-14T20:02:55.975Z,99768.59
2023-03-14T20:05:24.148Z,99782.78
2023-03-14T20:07:51.852Z,99897.06
2023-03-14T20:13:44.747Z,59527.72
2023-03-14T20:16:38.985Z,59527.72
2023-03-14T20:19:07.099Z,59527.72
2023-03-14T20:21:33.867Z,59527.72
2023-03-14T20:24:01.289Z,59527.72
2023-03-14T20:26:30.582Z,59527.72
2023-03-14T20:28:57.230Z,59527.72
2023-03-14T20:31:24.176Z,59527.72
2023-03-14T20:33:51.587Z,59527.72
2023-03-14T20:36:18.436Z,59527.72
2023-03-14T20:38:47.742Z,59527.72
2023-03-14T20:41:16.598Z,59527.72
2023-03-14T20:43:47.906Z,59527.72
2023-03-14T20:46:17.263Z,59527.72
2023-03-14T20:48:46.596Z,59527.72
2023-03-14T20:51:14.395Z,59527.72
2023-03-14T20:53:42.132Z,59527.72
2023-03-14T20:56:11.103Z,59527.72
2023-03-14T20:58:37.451Z,59527.72
2023-03-14T21:01:04.054Z,59527.72
2023-03-14T21:03:30.849Z,59527.72
2023-03-14T21:05:58.395Z,59527.72
2023-03-14T21:08:25.604Z,59527.72
2023-03-14T21:10:55.237Z,59527.72
2023-03-14T21:13:22.480Z,59527.72
2023-03-14T21:15:52.241Z,59527.72
2023-03-14T21:18:23.124Z,59527.72
2023-03-14T21:20:49.642Z,59527.72
2023-03-14T21:23:17.952Z,59527.72
2023-03-14T21:25:45.383Z,59527.72
2023-03-14T21:28:12.441Z,59527.72
2023-03-14T21:30:39.585Z,59527.72
2023-03-14T21:33:06.048Z,59527.72
2023-03-14T21:35:32.502Z,59527.72
2023-03-14T21:37:59.283Z,59527.72
2023-03-14T21:40:25.721Z,59527.72
2023-03-14T21:42:54.283Z,59527.72
2023-03-14T21:45:26.119Z,59527.72
2023-03-14T21:47:55.809Z,59527.72
2023-03-14T21:50:24.221Z,59527.72
2023-03-14T21:52:52.347Z,59527.72
2023-03-14T21:55:18.944Z,59527.72
2023-03-14T21:57:46.622Z,59527.72
2023-03-14T22:00:19.774Z,59527.72
2023-03-14T22:03:03.210Z,59527.72
2023-03-14T22:05:34.842Z,59527.72
2023-03-14T22:08:01.354Z,59527.72
2023-03-14T22:10:27.911Z,59527.72
2023-03-14T22:12:59.332Z,59527.72
2023-03-14T22:15:28.047Z,59527.72
2023-03-14T22:17:54.524Z,59527.72
2023-03-14T22:20:23.206Z,59527.72
2023-03-14T22:22:52.078Z,59527.72
2023-03-14T22:25:18.523Z,59527.72
2023-03-14T22:27:45.328Z,59527.72
2023-03-14T22:30:13.425Z,59527.72
2023-03-14T22:32:39.932Z,59527.72
2023-03-14T22:35:06.713Z,59527.72
2023-03-14T22:37:33.088Z,59527.72
2023-03-14T22:39:59.579Z,59527.72
2023-03-14T22:42:28.417Z,59527.72
